createdAt,value
2024-01-31T00:00:46.506Z,4.40
2024-01-31T00:03:13.089Z,4.40
2024-01-31T00:05:42.191Z,4.41
2024-01-31T00:08:08.865Z,4.40
2024-01-31T00:10:35.581Z,4.40
2024-01-31T00:13:02.310Z,4.39
2024-01-31T00:15:28.811Z,4.38
2024-01-31T00:17:56.160Z,4.36
2024-01-31T00:20:23.182Z,4.37
2024-01-31T00:22:52.233Z,4.36
2024-01-31T00:25:21.250Z,4.37
2024-01-31T00:27:50.636Z,4.38
2024-01-31T00:30:17.315Z,4.37
2024-01-31T00:32:44.132Z,4.37
2024-01-31T00:35:10.919Z,4.35
2024-01-31T00:37:37.678Z,4.34
2024-01-31T00:40:07.169Z,4.33
2024-01-31T00:42:33.847Z,4.31
2024-01-31T00:45:00.571Z,4.31
2024-01-31T00:47:27.743Z,4.31
2024-01-31T00:49:54.547Z,4.32
2024-01-31T00:52:23.452Z,4.34
2024-01-31T00:54:50.168Z,4.33
2024-01-31T00:57:19.625Z,4.36
2024-01-31T00:59:46.176Z,4.34
2024-01-31T01:02:12.818Z,4.37
2024-01-31T01:04:41.849Z,4.37
2024-01-31T01:07:08.541Z,4.39
2024-01-31T01:09:35.864Z,4.38
2024-01-31T01:12:04.080Z,4.38
2024-01-31T01:14:33.119Z,4.38
2024-01-31T01:16:59.679Z,4.37
2024-01-31T01:19:26.214Z,4.39
2024-01-31T01:21:52.751Z,4.39
2024-01-31T01:24:19.407Z,4.39
2024-01-31T01:26:48.270Z,4.40
2024-01-31T01:29:14.859Z,4.40
2024-01-31T01:31:41.495Z,4.40
2024-01-31T01:34:08.178Z,4.40
2024-01-31T01:36:34.830Z,4.39
2024-01-31T01:39:04.515Z,4.38
2024-01-31T01:41:31.109Z,4.37
2024-01-31T01:43:59.839Z,4.36
2024-01-31T01:46:26.699Z,4.34
2024-01-31T01:48:55.982Z,4.33
2024-01-31T01:51:26.792Z,4.32
2024-01-31T01:53:53.788Z,4.32
2024-01-31T01:56:23.162Z,4.30
2024-01-31T01:58:53.193Z,4.29
2024-01-31T02:01:23.783Z,4.30
2024-01-31T02:03:56.127Z,4.31
2024-01-31T02:06:25.233Z,4.30
2024-01-31T02:08:52.717Z,4.30
2024-01-31T02:11:21.716Z,4.31
2024-01-31T02:13:50.753Z,4.30
2024-01-31T02:16:17.462Z,4.31
2024-01-31T02:18:46.271Z,4.30
2024-01-31T02:21:17.245Z,4.29
2024-01-31T02:23:46.353Z,4.28
2024-01-31T02:26:15.483Z,4.27
2024-01-31T02:28:42.132Z,4.28
2024-01-31T02:31:08.728Z,4.27
2024-01-31T02:33:35.302Z,4.27
2024-01-31T02:36:04.315Z,4.27
2024-01-31T02:38:33.173Z,4.27
2024-01-31T02:41:01.972Z,4.26
2024-01-31T02:43:29.015Z,4.26
2024-01-31T02:45:55.704Z,4.26
2024-01-31T02:48:22.616Z,4.23
2024-01-31T02:50:49.277Z,4.24
2024-01-31T02:53:15.906Z,4.23
2024-01-31T02:55:44.818Z,4.23
2024-01-31T02:58:13.094Z,4.24
2024-01-31T03:00:40.468Z,4.24
2024-01-31T03:03:09.747Z,4.25
2024-01-31T03:05:39.214Z,4.25
2024-01-31T03:08:05.973Z,4.25
2024-01-31T03:10:33.780Z,4.25
2024-01-31T03:13:02.885Z,4.24
2024-01-31T03:15:29.556Z,4.26
2024-01-31T03:17:56.508Z,4.26
2024-01-31T03:20:25.338Z,4.25
2024-01-31T03:22:52.031Z,4.26
2024-01-31T03:25:18.551Z,4.26
2024-01-31T03:27:45.559Z,4.25
2024-01-31T03:30:12.594Z,4.26
2024-01-31T03:32:39.599Z,4.26
2024-01-31T03:35:06.737Z,4.26
2024-01-31T03:37:33.454Z,4.26
2024-01-31T03:40:02.442Z,4.26
2024-01-31T03:42:31.373Z,4.27
2024-01-31T03:45:00.237Z,4.25
2024-01-31T03:47:26.855Z,4.25
2024-01-31T03:49:58.777Z,4.25
2024-01-31T03:52:27.701Z,4.25
2024-01-31T03:54:54.353Z,4.26
2024-01-31T03:57:23.253Z,4.26
2024-01-31T03:59:52.272Z,4.24
2024-01-31T04:02:18.862Z,4.25
2024-01-31T04:04:45.515Z,4.23
2024-01-31T04:07:12.138Z,4.24
2024-01-31T04:09:43.367Z,4.23
2024-01-31T04:12:10.289Z,4.24
2024-01-31T04:14:36.761Z,4.24
2024-01-31T04:17:03.366Z,4.24
2024-01-31T04:19:32.940Z,4.23
2024-01-31T04:21:59.739Z,4.25
2024-01-31T04:24:28.709Z,4.24
2024-01-31T04:26:55.292Z,4.23
2024-01-31T04:29:24.110Z,4.23
2024-01-31T04:31:53.765Z,4.24
2024-01-31T04:34:22.105Z,4.23
2024-01-31T04:36:49.065Z,4.23
2024-01-31T04:39:17.952Z,4.25
2024-01-31T04:41:49.134Z,4.23
2024-01-31T04:44:17.904Z,4.24
2024-01-31T04:46:46.849Z,4.23
2024-01-31T04:49:13.545Z,4.22
2024-01-31T04:51:43.817Z,4.23
2024-01-31T04:54:16.066Z,4.22
2024-01-31T04:56:44.163Z,4.21
2024-01-31T04:59:13.492Z,4.22
2024-01-31T05:01:40.111Z,4.23
2024-01-31T05:04:06.861Z,4.23
2024-01-31T05:06:35.992Z,4.23
2024-01-31T05:09:05.038Z,4.22
2024-01-31T05:11:31.588Z,4.22
2024-01-31T05:13:58.251Z,4.22
2024-01-31T05:16:27.109Z,4.23
2024-01-31T05:18:53.787Z,4.22
2024-01-31T05:21:20.412Z,4.22
2024-01-31T05:23:49.365Z,4.22
2024-01-31T05:26:15.914Z,4.22
2024-01-31T05:28:44.705Z,4.24
2024-01-31T05:31:11.756Z,4.23
2024-01-31T05:33:38.366Z,4.23
2024-01-31T05:36:05.092Z,4.23
2024-01-31T05:38:31.786Z,4.24
2024-01-31T05:40:58.468Z,4.24
2024-01-31T05:43:25.143Z,4.24
2024-01-31T05:45:51.747Z,4.24
2024-01-31T05:48:21.074Z,4.23
2024-01-31T05:50:52.469Z,4.22
2024-01-31T05:53:19.244Z,4.22
2024-01-31T05:55:48.220Z,4.21
2024-01-31T05:58:14.924Z,4.22
2024-01-31T06:00:42.098Z,4.20
2024-01-31T06:03:09.107Z,4.20
2024-01-31T06:05:35.855Z,4.22
2024-01-31T06:08:05.162Z,4.21
2024-01-31T06:10:33.775Z,4.20
2024-01-31T06:13:00.443Z,4.21
2024-01-31T06:15:29.322Z,4.21
2024-01-31T06:17:58.433Z,4.22
2024-01-31T06:20:25.053Z,4.20
2024-01-31T06:22:51.722Z,4.20
2024-01-31T06:25:20.790Z,4.19
2024-01-31T06:27:48.214Z,4.17
2024-01-31T06:30:21.252Z,4.19
2024-01-31T06:32:49.225Z,4.18
2024-01-31T06:35:18.496Z,4.19
2024-01-31T06:37:45.320Z,4.19
2024-01-31T06:40:12.091Z,4.20
2024-01-31T06:42:41.156Z,4.20
2024-01-31T06:45:12.166Z,4.20
2024-01-31T06:47:42.697Z,4.19
2024-01-31T06:50:12.826Z,4.20
2024-01-31T06:52:39.594Z,4.19
2024-01-31T06:55:06.359Z,4.18
2024-01-31T06:57:34.544Z,4.17
2024-01-31T07:00:04.396Z,4.19
2024-01-31T07:02:30.917Z,4.19
2024-01-31T07:04:59.660Z,4.17
2024-01-31T07:07:26.296Z,4.18
2024-01-31T07:09:52.870Z,4.17
2024-01-31T07:12:19.824Z,4.16
2024-01-31T07:14:46.427Z,4.15
2024-01-31T07:17:15.643Z,4.13
2024-01-31T07:19:45.197Z,4.12
2024-01-31T07:22:11.760Z,4.13
2024-01-31T07:24:41.867Z,4.12
2024-01-31T07:27:08.513Z,4.13
2024-01-31T07:29:35.181Z,4.12
2024-01-31T07:32:01.763Z,4.12
2024-01-31T07:34:30.776Z,4.14
2024-01-31T07:36:57.522Z,4.15
2024-01-31T07:39:24.122Z,4.17
2024-01-31T07:41:53.758Z,4.17
2024-01-31T07:44:20.453Z,4.18
2024-01-31T07:46:47.254Z,4.18
2024-01-31T07:49:14.215Z,4.19
2024-01-31T07:51:45.460Z,4.20
2024-01-31T07:54:12.479Z,4.23
2024-01-31T07:56:41.531Z,4.24
2024-01-31T07:59:10.978Z,4.25
2024-01-31T08:01:37.666Z,4.25
2024-01-31T08:04:05.234Z,4.28
2024-01-31T08:06:32.019Z,4.29
2024-01-31T08:09:05.214Z,4.31
2024-01-31T08:11:44.605Z,4.32
2024-01-31T08:14:11.872Z,4.34
2024-01-31T08:16:38.631Z,4.37
2024-01-31T08:19:05.447Z,4.38
2024-01-31T08:21:35.096Z,4.39
2024-01-31T08:24:01.706Z,4.40
2024-01-31T08:26:30.675Z,4.42
2024-01-31T08:29:10.568Z,4.44
2024-01-31T08:31:42.981Z,4.46
2024-01-31T08:34:11.271Z,4.48
2024-01-31T08:36:37.887Z,4.48
2024-01-31T08:39:04.557Z,4.51
2024-01-31T08:41:31.514Z,4.53
2024-01-31T08:44:00.346Z,4.54
2024-01-31T08:46:28.820Z,4.56
2024-01-31T08:49:00.713Z,4.58
2024-01-31T08:51:27.812Z,4.62
2024-01-31T08:53:54.621Z,4.64
2024-01-31T08:56:21.242Z,4.66
2024-01-31T08:58:47.998Z,4.68
2024-01-31T09:01:14.629Z,4.70
2024-01-31T09:03:41.316Z,4.72
2024-01-31T09:06:07.942Z,4.76
2024-01-31T09:08:34.578Z,4.80
2024-01-31T09:11:06.054Z,4.82
2024-01-31T09:13:34.822Z,4.87
2024-01-31T09:16:01.583Z,4.90
2024-01-31T09:18:28.573Z,4.95
2024-01-31T09:20:55.420Z,5.00
2024-01-31T09:23:22.620Z,5.04
2024-01-31T09:25:51.192Z,5.10
2024-01-31T09:28:17.833Z,5.13
2024-01-31T09:30:45.297Z,5.20
2024-01-31T09:33:14.060Z,5.26
2024-01-31T09:35:41.059Z,5.32
2024-01-31T09:38:17.640Z,5.36
2024-01-31T09:40:44.430Z,5.38
2024-01-31T09:43:11.000Z,5.41
2024-01-31T09:45:39.888Z,5.44
2024-01-31T09:48:11.322Z,5.46
2024-01-31T09:50:40.285Z,5.48
2024-01-31T09:53:15.498Z,5.48
2024-01-31T09:55:44.694Z,5.49
2024-01-31T09:58:11.865Z,5.50
2024-01-31T10:00:41.127Z,5.53
2024-01-31T10:03:10.070Z,5.53
2024-01-31T10:05:39.250Z,5.54
2024-01-31T10:08:06.172Z,5.54
2024-01-31T10:10:35.490Z,5.54
2024-01-31T10:13:02.248Z,5.55
2024-01-31T10:15:29.895Z,5.59
2024-01-31T10:17:56.535Z,5.62
2024-01-31T10:20:23.264Z,5.64
2024-01-31T10:22:52.878Z,5.66
2024-01-31T10:25:20.121Z,5.69
2024-01-31T10:27:52.494Z,5.70
2024-01-31T10:30:19.445Z,5.71
2024-01-31T10:32:47.144Z,5.73
2024-01-31T10:37:55.986Z,5.80
2024-01-31T10:40:28.899Z,5.82
2024-01-31T10:42:56.637Z,5.84
2024-01-31T10:45:24.513Z,5.87
2024-01-31T10:47:51.351Z,5.87
2024-01-31T10:50:18.215Z,5.90
2024-01-31T10:52:45.416Z,5.94
2024-01-31T10:55:15.864Z,5.96
2024-01-31T10:57:47.795Z,5.97
2024-01-31T11:00:32.471Z,5.96
2024-01-31T11:02:59.548Z,5.98
2024-01-31T11:05:28.559Z,6.00
2024-01-31T11:08:00.005Z,6.03
2024-01-31T11:10:29.224Z,6.06
2024-01-31T11:13:07.958Z,6.11
2024-01-31T11:15:36.273Z,6.11
2024-01-31T11:18:14.058Z,6.11
2024-01-31T11:20:53.344Z,6.11
2024-01-31T11:23:24.703Z,6.10
2024-01-31T11:25:52.585Z,6.10
2024-01-31T11:28:20.397Z,6.12
2024-01-31T11:30:53.158Z,6.14
2024-01-31T11:33:23.334Z,6.17
2024-01-31T11:35:51.057Z,6.19
2024-01-31T11:38:18.618Z,6.21
2024-01-31T11:40:45.347Z,6.24
2024-01-31T11:43:11.952Z,6.26
2024-01-31T11:45:44.400Z,6.29
2024-01-31T11:48:17.566Z,6.31
2024-01-31T11:50:47.008Z,6.35
2024-01-31T11:53:16.292Z,6.39
2024-01-31T11:55:42.970Z,6.39
2024-01-31T11:58:12.184Z,6.43
2024-01-31T12:00:41.257Z,6.45
2024-01-31T12:03:08.063Z,6.44
2024-01-31T12:05:35.002Z,6.43
2024-01-31T12:08:03.903Z,6.44
2024-01-31T12:10:30.514Z,6.43
2024-01-31T12:13:00.692Z,6.42
2024-01-31T12:15:32.263Z,6.42
2024-01-31T12:18:00.809Z,6.42
2024-01-31T12:20:27.833Z,6.43
2024-01-31T12:22:54.429Z,6.42
2024-01-31T12:25:21.006Z,6.41
2024-01-31T12:27:49.974Z,6.43
2024-01-31T12:30:17.595Z,6.42
2024-01-31T12:32:46.890Z,6.41
2024-01-31T12:35:14.388Z,6.38
2024-01-31T12:37:41.071Z,6.38
2024-01-31T12:40:10.405Z,6.37
2024-01-31T12:42:37.477Z,6.32
2024-01-31T12:45:05.454Z,6.31
2024-01-31T12:47:32.145Z,6.28
2024-01-31T12:49:58.868Z,6.26
2024-01-31T12:52:26.584Z,6.23
2024-01-31T12:54:53.629Z,6.23
2024-01-31T12:57:22.323Z,6.21
2024-01-31T13:03:32.145Z,6.18
2024-01-31T13:05:59.312Z,6.17
2024-01-31T13:08:32.847Z,6.15
2024-01-31T13:11:07.791Z,6.14
2024-01-31T13:13:39.230Z,6.13
2024-01-31T13:16:10.745Z,6.13
2024-01-31T13:18:42.282Z,6.12
2024-01-31T13:21:08.929Z,6.10
2024-01-31T13:23:41.489Z,6.13
2024-01-31T13:26:08.762Z,6.23
2024-01-31T13:28:35.548Z,6.34
2024-01-31T13:31:04.679Z,6.37
2024-01-31T13:33:33.736Z,6.30
2024-01-31T13:36:02.998Z,6.27
2024-01-31T13:38:37.952Z,6.28
2024-01-31T13:41:04.841Z,6.30
2024-01-31T13:43:31.556Z,6.29
2024-01-31T13:46:00.269Z,6.27
2024-01-31T13:48:31.985Z,6.27
2024-01-31T13:51:01.074Z,6.28
2024-01-31T13:53:35.303Z,6.28
2024-01-31T13:56:01.993Z,6.29
2024-01-31T13:58:28.679Z,6.30
2024-01-31T14:00:57.692Z,6.29
2024-01-31T14:03:26.704Z,6.29
2024-01-31T14:05:53.492Z,6.30
2024-01-31T14:08:21.077Z,6.30
2024-01-31T14:10:48.993Z,6.30
2024-01-31T14:13:16.185Z,6.29
2024-01-31T14:15:42.796Z,6.30
2024-01-31T14:18:13.612Z,6.31
2024-01-31T14:20:42.102Z,6.31
2024-01-31T14:25:43.417Z,6.33
2024-01-31T14:28:10.077Z,6.35
2024-01-31T14:30:36.716Z,6.36
2024-01-31T14:33:03.665Z,6.37
2024-01-31T14:35:33.546Z,6.37
2024-01-31T14:38:00.077Z,6.36
2024-01-31T14:40:27.575Z,6.37
2024-01-31T14:42:54.153Z,6.37
2024-01-31T14:45:23.270Z,6.37
2024-01-31T14:47:52.273Z,6.38
2024-01-31T14:50:18.823Z,6.38
2024-01-31T14:52:48.287Z,6.38
2024-01-31T14:55:17.212Z,6.40
2024-01-31T14:57:46.336Z,6.40
2024-01-31T15:00:13.497Z,6.41
2024-01-31T15:02:40.098Z,6.41
2024-01-31T15:05:07.148Z,6.42
2024-01-31T15:07:33.956Z,6.41
2024-01-31T15:10:00.777Z,6.40
2024-01-31T15:12:29.757Z,6.40
2024-01-31T15:14:56.608Z,6.39
2024-01-31T15:17:24.599Z,6.37
2024-01-31T15:19:51.380Z,6.37
2024-01-31T15:22:18.052Z,6.35
2024-01-31T15:24:46.131Z,6.36
2024-01-31T15:27:15.083Z,6.35
2024-01-31T15:29:41.690Z,6.34
2024-01-31T15:32:10.817Z,6.32
2024-01-31T15:34:38.356Z,6.31
2024-01-31T15:37:04.945Z,6.31
2024-01-31T15:39:33.768Z,6.28
2024-01-31T15:42:00.420Z,6.26
2024-01-31T15:44:29.526Z,6.23
2024-01-31T15:46:56.879Z,6.20
2024-01-31T15:49:26.775Z,6.17
2024-01-31T15:51:55.892Z,6.14
2024-01-31T15:54:22.531Z,6.11
2024-01-31T15:56:53.821Z,6.09
2024-01-31T15:59:20.755Z,6.07
2024-01-31T16:01:50.065Z,6.04
2024-01-31T16:04:16.854Z,6.02
2024-01-31T16:06:56.419Z,6.01
2024-01-31T16:09:24.067Z,6.00
2024-01-31T16:11:53.777Z,5.98
2024-01-31T16:14:20.560Z,5.96
2024-01-31T16:16:47.545Z,5.95
2024-01-31T16:19:17.772Z,5.94
2024-01-31T16:21:47.317Z,5.95
2024-01-31T16:24:14.584Z,5.95
2024-01-31T16:26:41.459Z,5.92
2024-01-31T16:29:08.164Z,5.91
2024-01-31T16:31:40.142Z,5.90
2024-01-31T16:34:06.859Z,5.89
2024-01-31T16:36:33.527Z,5.88
2024-01-31T16:39:03.892Z,5.87
2024-01-31T16:41:30.607Z,5.86
2024-01-31T16:43:59.779Z,5.84
2024-01-31T16:46:28.526Z,5.83
2024-01-31T16:48:57.570Z,5.79
2024-01-31T16:51:26.777Z,5.79
2024-01-31T16:53:53.399Z,5.76
2024-01-31T16:56:23.047Z,5.74
2024-01-31T16:58:49.658Z,5.75
2024-01-31T17:01:17.343Z,5.73
2024-01-31T17:03:44.147Z,5.73
2024-01-31T17:06:10.959Z,5.71
2024-01-31T17:08:37.952Z,5.71
2024-01-31T17:11:06.961Z,5.72
2024-01-31T17:13:36.053Z,5.72
2024-01-31T17:16:05.168Z,5.73
2024-01-31T17:18:31.883Z,5.76
2024-01-31T17:21:01.470Z,5.75
2024-01-31T17:23:32.574Z,5.74
2024-01-31T17:25:59.159Z,5.72
2024-01-31T17:28:30.972Z,5.71
2024-01-31T17:30:57.606Z,5.71
2024-01-31T17:33:24.266Z,5.71
2024-01-31T17:35:53.726Z,5.70
2024-01-31T17:38:22.829Z,5.70
2024-01-31T17:40:49.733Z,5.70
2024-01-31T17:43:16.531Z,5.70
2024-01-31T17:45:45.428Z,5.69
2024-01-31T17:48:12.210Z,5.68
2024-01-31T17:50:38.878Z,5.69
2024-01-31T17:53:05.431Z,5.68
2024-01-31T17:55:32.356Z,5.68
2024-01-31T17:57:59.349Z,5.67
2024-01-31T18:00:25.951Z,5.65
2024-01-31T18:02:53.970Z,5.65
2024-01-31T18:05:22.763Z,5.65
2024-01-31T18:07:49.325Z,5.65
2024-01-31T18:10:20.729Z,5.63
2024-01-31T18:12:47.380Z,5.61
2024-01-31T18:15:19.506Z,5.61
2024-01-31T18:17:48.028Z,5.59
2024-01-31T18:20:17.624Z,5.55
2024-01-31T18:22:49.310Z,5.50
2024-01-31T18:25:15.942Z,5.46
2024-01-31T18:27:42.735Z,5.47
2024-01-31T18:30:14.407Z,5.49
2024-01-31T18:32:41.395Z,5.49
2024-01-31T18:35:08.581Z,5.49
2024-01-31T18:37:38.055Z,5.52
2024-01-31T18:40:06.102Z,5.54
2024-01-31T18:42:32.630Z,5.57
2024-01-31T18:44:59.769Z,5.55
2024-01-31T18:47:26.642Z,5.56
2024-01-31T18:49:55.562Z,5.54
2024-01-31T18:52:24.652Z,5.55
2024-01-31T18:54:53.586Z,5.58
2024-01-31T18:57:20.294Z,5.59
2024-01-31T18:59:46.940Z,5.59
2024-01-31T19:02:15.792Z,5.60
2024-01-31T19:04:48.761Z,5.62
2024-01-31T19:07:22.351Z,5.63
2024-01-31T19:09:54.104Z,5.63
2024-01-31T19:12:25.999Z,5.63
2024-01-31T19:14:53.098Z,5.63
2024-01-31T19:17:26.191Z,5.63
2024-01-31T19:19:56.243Z,5.63
2024-01-31T19:22:25.601Z,5.64
2024-01-31T19:24:55.661Z,5.62
2024-01-31T19:27:23.227Z,5.63
2024-01-31T19:29:50.074Z,5.62
2024-01-31T19:32:18.913Z,5.61
2024-01-31T19:34:45.820Z,5.62
2024-01-31T19:37:12.552Z,5.65
2024-01-31T19:39:39.218Z,5.64
2024-01-31T19:42:05.953Z,5.65
2024-01-31T19:44:32.670Z,5.63
2024-01-31T19:47:00.131Z,5.63
2024-01-31T19:49:29.576Z,5.63
2024-01-31T19:51:58.900Z,5.64
2024-01-31T19:54:26.027Z,5.64
2024-01-31T19:56:52.771Z,5.65
2024-01-31T19:59:19.335Z,5.65
2024-01-31T20:01:46.807Z,5.63
2024-01-31T20:04:14.270Z,5.63
2024-01-31T20:06:41.923Z,5.64
2024-01-31T20:09:09.144Z,5.64
2024-01-31T20:11:38.831Z,5.65
2024-01-31T20:14:07.695Z,5.65
2024-01-31T20:16:36.614Z,5.64
2024-01-31T20:19:04.241Z,5.66
2024-01-31T20:21:30.985Z,5.66
2024-01-31T20:24:01.944Z,5.69
2024-01-31T20:26:35.146Z,5.69
2024-01-31T20:29:01.745Z,5.70
2024-01-31T20:31:28.543Z,5.70
2024-01-31T20:33:57.616Z,5.71
2024-01-31T20:36:24.234Z,5.73
2024-01-31T20:38:53.250Z,5.74
2024-01-31T20:41:27.861Z,5.75
2024-01-31T20:43:54.574Z,5.76
2024-01-31T20:46:24.342Z,5.78
2024-01-31T20:48:51.664Z,5.79
2024-01-31T20:51:23.466Z,5.81
2024-01-31T20:53:53.138Z,5.81
2024-01-31T20:56:22.976Z,5.83
2024-01-31T20:58:53.687Z,5.85
2024-01-31T21:01:21.341Z,5.87
2024-01-31T21:03:50.234Z,5.87
2024-01-31T21:06:19.214Z,5.87
2024-01-31T21:08:48.491Z,5.87
2024-01-31T21:11:18.278Z,5.87
2024-01-31T21:13:44.996Z,5.87
2024-01-31T21:16:14.196Z,5.88
2024-01-31T21:18:40.975Z,5.89
2024-01-31T21:21:08.092Z,5.89
2024-01-31T21:23:37.168Z,5.90
2024-01-31T21:26:06.171Z,5.92
2024-01-31T21:28:32.731Z,5.92
2024-01-31T21:30:59.336Z,5.95
2024-01-31T21:33:28.521Z,5.95
2024-01-31T21:35:56.251Z,5.99
2024-01-31T21:38:25.158Z,6.03
2024-01-31T21:40:54.204Z,6.02
2024-01-31T21:43:21.098Z,6.03
2024-01-31T21:45:47.762Z,6.06
2024-01-31T21:48:16.675Z,6.07
2024-01-31T21:50:43.488Z,6.07
2024-01-31T21:53:10.030Z,6.09
2024-01-31T21:55:37.992Z,6.11
2024-01-31T21:58:07.209Z,6.12
2024-01-31T22:00:33.799Z,6.14
2024-01-31T22:03:00.989Z,6.16
2024-01-31T22:05:28.136Z,6.17
2024-01-31T22:07:54.784Z,6.21
2024-01-31T22:10:21.415Z,6.23
2024-01-31T22:12:49.055Z,6.25
2024-01-31T22:15:15.984Z,6.25
2024-01-31T22:17:42.763Z,6.26
2024-01-31T22:20:19.299Z,6.24
2024-01-31T22:22:56.360Z,6.22
2024-01-31T22:25:27.828Z,6.19
2024-01-31T22:27:54.759Z,6.17
2024-01-31T22:30:23.774Z,6.15
2024-01-31T22:32:50.468Z,6.12
2024-01-31T22:35:17.139Z,6.08
2024-01-31T22:37:45.798Z,6.07
2024-01-31T22:40:13.048Z,6.03
2024-01-31T22:42:39.749Z,6.01
2024-01-31T22:45:06.976Z,6.00
2024-01-31T22:47:33.626Z,5.97
2024-01-31T22:50:00.286Z,5.96
2024-01-31T22:52:27.463Z,5.93
2024-01-31T22:55:00.811Z,5.93
2024-01-31T22:57:28.410Z,5.93
2024-01-31T22:59:57.357Z,5.94
2024-01-31T23:02:28.807Z,5.95
2024-01-31T23:05:00.257Z,5.97
2024-01-31T23:07:31.819Z,5.99
2024-01-31T23:09:58.503Z,6.00
2024-01-31T23:12:27.251Z,6.00
2024-01-31T23:14:56.287Z,6.02
2024-01-31T23:17:23.102Z,6.04
2024-01-31T23:19:49.935Z,6.04
2024-01-31T23:22:16.697Z,6.06
2024-01-31T23:24:45.767Z,6.08
2024-01-31T23:27:12.458Z,6.09
2024-01-31T23:29:39.063Z,6.12
2024-01-31T23:32:06.140Z,6.13
2024-01-31T23:34:34.943Z,6.13
2024-01-31T23:37:02.277Z,6.15
2024-01-31T23:39:28.980Z,6.16
2024-01-31T23:41:55.553Z,6.18
2024-01-31T23:44:24.634Z,6.19
2024-01-31T23:46:51.651Z,6.21
2024-01-31T23:49:20.851Z,6.24
2024-01-31T23:51:49.978Z,6.25
2024-01-31T23:54:16.597Z,6.25
2024-01-31T23:56:45.821Z,6.27
2024-01-31T23:59:12.403Z,6.30
